Time;durP1;ratioP1;P1;durP2;ratioP2;P2;SDS_P1;SDS_P2;PMS_P1;PMS_P2;Temp;Humidity;BMP_temperature;BMP_pressure;BME280_temperature;BME280_humidity;BME280_pressure;Samples;Min_cycle;Max_cycle;Signal;HPM_P1;HPM_P2
2022/05/23 00:00:00;;;;;;;0.2;0.2;;;;;;;18.8;100.0;100500;;;;
2022/05/23 00:01:00;;;;;;;0.2;0.2;;;;;;;18.8;100.0;100500;;;;
2022/05/23 00:02:00;;;;;;;0.2;0.2;;;;;;;18.6;100.0;100500;;;;
2022/05/23 00:03:00;;;;;;;0.2;0.2;;;;;;;18.6;100.0;100500;;;;
2022/05/23 00:04:00;;;;;;;0.2;0.2;;;;;;;18.7;100.0;100490;;;;
2022/05/23 00:05:00;;;;;;;0.2;0.2;;;;;;;18.7;100.0;100490;;;;
2022/05/23 00:06:00;;;;;;;0.2;0.2;;;;;;;18.5;100.0;100480;;;;
2022/05/23 00:07:00;;;;;;;0.2;0.2;;;;;;;18.5;100.0;100480;;;;
2022/05/23 00:08:00;;;;;;;0.2;0.2;;;;;;;18.5;100.0;100480;;;;
2022/05/23 00:09:00;;;;;;;0.2;0.2;;;;;;;18.5;100.0;100480;;;;
2022/05/23 00:10:00;;;;;;;0.2;0.2;;;;;;;18.6;100.0;100470;;;;
2022/05/23 00:11:00;;;;;;;0.2;0.2;;;;;;;18.6;100.0;100470;;;;
2022/05/23 00:12:00;;;;;;;0.2;0.2;;;;;;;18.7;100.0;100460;;;;
2022/05/23 00:13:00;;;;;;;0.2;0.2;;;;;;;18.7;100.0;100460;;;;
2022/05/23 00:14:00;;;;;;;0.2;0.2;;;;;;;18.4;100.0;100460;;;;
2022/05/23 00:15:00;;;;;;;0.2;0.2;;;;;;;18.4;100.0;100460;;;;
2022/05/23 00:16:00;;;;;;;0.2;0.2;;;;;;;18.5;100.0;100450;;;;
2022/05/23 00:17:00;;;;;;;0.2;0.2;;;;;;;18.5;100.0;100450;;;;
2022/05/23 00:18:01;;;;;;;0.2;0.2;;;;;;;18.4;100.0;100450;;;;
2022/05/23 00:19:00;;;;;;;0.2;0.2;;;;;;;18.4;100.0;100450;;;;
2022/05/23 00:20:00;;;;;;;0.2;0.2;;;;;;;18.1;100.0;100440;;;;
2022/05/23 00:21:00;;;;;;;0.2;0.2;;;;;;;18.1;100.0;100440;;;;
2022/05/23 00:22:00;;;;;;;0.2;0.2;;;;;;;18.2;100.0;100440;;;;
2022/05/23 00:23:00;;;;;;;0.2;0.2;;;;;;;18.2;100.0;100440;;;;
2022/05/23 00:24:00;;;;;;;0.2;0.2;;;;;;;18.2;100.0;100450;;;;
2022/05/23 00:25:00;;;;;;;0.2;0.2;;;;;;;18.2;100.0;100450;;;;
2022/05/23 00:26:00;;;;;;;0.2;0.2;;;;;;;18.1;100.0;100450;;;;
2022/05/23 00:27:00;;;;;;;0.2;0.2;;;;;;;18.1;100.0;100450;;;;
2022/05/23 00:28:00;;;;;;;0.2;0.2;;;;;;;18.0;100.0;100450;;;;
2022/05/23 00:29:00;;;;;;;0.2;0.2;;;;;;;18.0;100.0;100450;;;;
2022/05/23 00:30:00;;;;;;;0.3;0.3;;;;;;;18.1;100.0;100450;;;;
2022/05/23 00:31:00;;;;;;;0.3;0.3;;;;;;;18.1;100.0;100450;;;;
2022/05/23 00:36:00;;;;;;;0.3;0.3;;;;;;;18.0;100.0;100450;;;;
2022/05/23 00:37:00;;;;;;;0.3;0.3;;;;;;;18.0;100.0;100450;;;;
2022/05/23 00:38:00;;;;;;;0.3;0.3;;;;;;;18.3;100.0;100450;;;;
2022/05/23 00:39:00;;;;;;;0.3;0.3;;;;;;;18.3;100.0;100450;;;;
2022/05/23 00:40:00;;;;;;;0.3;0.3;;;;;;;18.2;100.0;100450;;;;
2022/05/23 00:44:02;;;;;;;0.3;0.3;;;;;;;18.3;100.0;100450;;;;
2022/05/23 00:45:00;;;;;;;0.3;0.3;;;;;;;18.3;100.0;100450;;;;
2022/05/23 00:46:01;;;;;;;0.3;0.3;;;;;;;18.3;100.0;100450;;;;
2022/05/23 00:47:01;;;;;;;0.3;0.3;;;;;;;18.3;100.0;100450;;;;
2022/05/23 00:48:00;;;;;;;0.3;0.3;;;;;;;18.2;100.0;100450;;;;
2022/05/23 00:49:02;;;;;;;0.3;0.3;;;;;;;18.2;100.0;100450;;;;
2022/05/23 00:50:00;;;;;;;0.5;0.5;;;;;;;18.2;100.0;100450;;;;
2022/05/23 00:51:03;;;;;;;0.5;0.5;;;;;;;18.2;100.0;100450;;;;
2022/05/23 00:52:03;;;;;;;0.5;0.5;;;;;;;18.1;100.0;100450;;;;
2022/05/23 00:53:00;;;;;;;0.5;0.5;;;;;;;18.1;100.0;100450;;;;
2022/05/23 00:54:01;;;;;;;0.5;0.5;;;;;;;18.0;100.0;100440;;;;
2022/05/23 00:55:03;;;;;;;0.5;0.5;;;;;;;18.0;100.0;100440;;;;
2022/05/23 00:56:00;;;;;;;0.5;0.5;;;;;;;18.2;100.0;100440;;;;
2022/05/23 00:57:00;;;;;;;0.5;0.5;;;;;;;18.2;100.0;100440;;;;
2022/05/23 00:58:04;;;;;;;0.5;0.5;;;;;;;18.2;100.0;100430;;;;
2022/05/23 00:59:02;;;;;;;0.5;0.5;;;;;;;18.2;100.0;100430;;;;
2022/05/23 01:00:01;;;;;;;0.5;0.5;;;;;;;18.3;100.0;100430;;;;
2022/05/23 01:01:04;;;;;;;0.5;0.5;;;;;;;18.3;100.0;100430;;;;
2022/05/23 01:02:01;;;;;;;0.5;0.5;;;;;;;18.1;100.0;100430;;;;
2022/05/23 01:03:02;;;;;;;0.5;0.5;;;;;;;18.1;100.0;100430;;;;
2022/05/23 01:04:00;;;;;;;0.5;0.5;;;;;;;18.2;100.0;100430;;;;
2022/05/23 01:05:00;;;;;;;0.5;0.5;;;;;;;18.2;100.0;100430;;;;
2022/05/23 01:06:00;;;;;;;0.5;0.5;;;;;;;18.2;100.0;100430;;;;
2022/05/23 01:07:00;;;;;;;0.5;0.5;;;;;;;18.2;100.0;100430;;;;
2022/05/23 01:08:00;;;;;;;0.5;0.5;;;;;;;18.2;100.0;100430;;;;
2022/05/23 01:09:00;;;;;;;0.5;0.5;;;;;;;18.2;100.0;100430;;;;
2022/05/23 01:10:00;;;;;;;0.2;0.2;;;;;;;18.0;100.0;100420;;;;
2022/05/23 01:11:00;;;;;;;0.2;0.2;;;;;;;18.0;100.0;100420;;;;
2022/05/23 01:12:00;;;;;;;0.2;0.2;;;;;;;18.0;100.0;100420;;;;
2022/05/23 01:13:00;;;;;;;0.2;0.2;;;;;;;18.0;100.0;100420;;;;
2022/05/23 01:14:00;;;;;;;0.2;0.2;;;;;;;18.0;100.0;100410;;;;
2022/05/23 01:15:01;;;;;;;0.2;0.2;;;;;;;18.0;100.0;100410;;;;
2022/05/23 01:16:00;;;;;;;0.2;0.2;;;;;;;17.9;100.0;100410;;;;
2022/05/23 01:17:00;;;;;;;0.2;0.2;;;;;;;17.9;100.0;100410;;;;
2022/05/23 01:18:00;;;;;;;0.2;0.2;;;;;;;17.9;100.0;100410;;;;
2022/05/23 01:19:00;;;;;;;0.2;0.2;;;;;;;17.9;100.0;100410;;;;
2022/05/23 01:20:00;;;;;;;0.2;0.2;;;;;;;18.0;100.0;100410;;;;
2022/05/23 01:21:01;;;;;;;0.2;0.2;;;;;;;18.0;100.0;100410;;;;
2022/05/23 01:22:05;;;;;;;0.2;0.2;;;;;;;18.1;100.0;100410;;;;
2022/05/23 01:23:00;;;;;;;0.2;0.2;;;;;;;18.1;100.0;100410;;;;
2022/05/23 01:24:07;;;;;;;0.2;0.2;;;;;;;18.1;100.0;100420;;;;
2022/05/23 01:25:07;;;;;;;0.2;0.2;;;;;;;18.1;100.0;100420;;;;
2022/05/23 01:26:00;;;;;;;0.2;0.2;;;;;;;18.1;100.0;100420;;;;
2022/05/23 01:27:00;;;;;;;0.2;0.2;;;;;;;18.1;100.0;100420;;;;
2022/05/23 01:28:00;;;;;;;0.2;0.2;;;;;;;18.0;100.0;100430;;;;
2022/05/23 01:29:00;;;;;;;0.2;0.2;;;;;;;18.0;100.0;100430;;;;
2022/05/23 01:30:00;;;;;;;0.2;0.2;;;;;;;17.9;100.0;100430;;;;
2022/05/23 01:31:00;;;;;;;0.2;0.2;;;;;;;17.9;100.0;100430;;;;
2022/05/23 01:32:04;;;;;;;0.2;0.2;;;;;;;17.9;100.0;100430;;;;
2022/05/23 01:33:01;;;;;;;0.2;0.2;;;;;;;17.9;100.0;100430;;;;
2022/05/23 01:34:00;;;;;;;0.2;0.2;;;;;;;17.9;100.0;100430;;;;
2022/05/23 01:35:00;;;;;;;0.2;0.2;;;;;;;17.9;100.0;100430;;;;
2022/05/23 01:36:00;;;;;;;0.2;0.2;;;;;;;17.8;100.0;100420;;;;
2022/05/23 01:37:00;;;;;;;0.2;0.2;;;;;;;17.8;100.0;100420;;;;
2022/05/23 01:38:00;;;;;;;0.2;0.2;;;;;;;18.0;100.0;100410;;;;
2022/05/23 01:39:00;;;;;;;0.2;0.2;;;;;;;18.0;100.0;100410;;;;
2022/05/23 01:40:00;;;;;;;0.2;0.2;;;;;;;17.9;100.0;100410;;;;
2022/05/23 01:41:00;;;;;;;0.2;0.2;;;;;;;17.9;100.0;100410;;;;
2022/05/23 01:42:00;;;;;;;0.2;0.2;;;;;;;17.8;100.0;100410;;;;
2022/05/23 01:43:00;;;;;;;0.2;0.2;;;;;;;17.8;100.0;100410;;;;
2022/05/23 01:44:00;;;;;;;0.2;0.2;;;;;;;17.9;100.0;100420;;;;
2022/05/23 01:45:00;;;;;;;0.2;0.2;;;;;;;17.9;100.0;100420;;;;
2022/05/23 01:46:00;;;;;;;0.2;0.2;;;;;;;17.9;100.0;100410;;;;
2022/05/23 01:47:06;;;;;;;0.2;0.2;;;;;;;17.9;100.0;100410;;;;
2022/05/23 01:48:00;;;;;;;0.2;0.2;;;;;;;17.7;100.0;100410;;;;
2022/05/23 01:49:00;;;;;;;0.2;0.2;;;;;;;17.7;100.0;100410;;;;
2022/05/23 01:50:00;;;;;;;0.2;0.2;;;;;;;17.9;100.0;100410;;;;
2022/05/23 01:51:00;;;;;;;0.2;0.2;;;;;;;17.9;100.0;100410;;;;
2022/05/23 01:52:00;;;;;;;0.2;0.2;;;;;;;17.8;100.0;100400;;;;
2022/05/23 01:53:00;;;;;;;0.2;0.2;;;;;;;17.8;100.0;100400;;;;
2022/05/23 01:54:00;;;;;;;0.2;0.2;;;;;;;17.7;100.0;100410;;;;
2022/05/23 01:55:00;;;;;;;0.2;0.2;;;;;;;17.7;100.0;100410;;;;
2022/05/23 01:56:04;;;;;;;0.2;0.2;;;;;;;17.7;100.0;100410;;;;
2022/05/23 01:57:00;;;;;;;0.2;0.2;;;;;;;17.7;100.0;100410;;;;
2022/05/23 01:58:00;;;;;;;0.2;0.2;;;;;;;17.9;100.0;100410;;;;
2022/05/23 02:02:00;;;;;;;0.2;0.2;;;;;;;17.8;100.0;100410;;;;
2022/05/23 02:03:00;;;;;;;0.2;0.2;;;;;;;17.8;100.0;100410;;;;
2022/05/23 02:04:00;;;;;;;0.2;0.2;;;;;;;17.8;100.0;100410;;;;
2022/05/23 02:05:00;;;;;;;0.2;0.2;;;;;;;17.8;100.0;100410;;;;
2022/05/23 02:06:00;;;;;;;0.2;0.2;;;;;;;17.8;100.0;100410;;;;
2022/05/23 02:07:00;;;;;;;0.2;0.2;;;;;;;17.8;100.0;100410;;;;
2022/05/23 02:08:00;;;;;;;0.2;0.2;;;;;;;17.4;100.0;100410;;;;
2022/05/23 02:09:00;;;;;;;0.2;0.2;;;;;;;17.4;100.0;100410;;;;
2022/05/23 02:10:00;;;;;;;0.4;0.4;;;;;;;17.4;100.0;100410;;;;
2022/05/23 02:11:00;;;;;;;0.4;0.4;;;;;;;17.4;100.0;100410;;;;
2022/05/23 02:12:00;;;;;;;0.4;0.4;;;;;;;17.4;100.0;100400;;;;
2022/05/23 02:13:02;;;;;;;0.4;0.4;;;;;;;17.4;100.0;100400;;;;
2022/05/23 02:14:00;;;;;;;0.4;0.4;;;;;;;17.4;100.0;100390;;;;
2022/05/23 02:15:00;;;;;;;0.4;0.4;;;;;;;17.4;100.0;100390;;;;
2022/05/23 02:16:00;;;;;;;0.4;0.4;;;;;;;17.5;100.0;100390;;;;
2022/05/23 02:17:00;;;;;;;0.4;0.4;;;;;;;17.5;100.0;100390;;;;
2022/05/23 02:18:01;;;;;;;0.4;0.4;;;;;;;17.5;100.0;100390;;;;
2022/05/23 02:19:00;;;;;;;0.4;0.4;;;;;;;17.5;100.0;100390;;;;
2022/05/23 02:20:00;;;;;;;0.4;0.4;;;;;;;17.4;100.0;100390;;;;
2022/05/23 02:21:00;;;;;;;0.4;0.4;;;;;;;17.4;100.0;100390;;;;
2022/05/23 02:22:00;;;;;;;0.4;0.4;;;;;;;17.4;100.0;100380;;;;
2022/05/23 02:23:00;;;;;;;0.4;0.4;;;;;;;17.4;100.0;100380;;;;
2022/05/23 02:24:03;;;;;;;0.4;0.4;;;;;;;17.3;100.0;100380;;;;
2022/05/23 02:25:01;;;;;;;0.4;0.4;;;;;;;17.3;100.0;100380;;;;
2022/05/23 02:26:00;;;;;;;0.4;0.4;;;;;;;17.4;100.0;100380;;;;
2022/05/23 02:27:00;;;;;;;0.4;0.4;;;;;;;17.4;100.0;100380;;;;
2022/05/23 02:28:00;;;;;;;0.4;0.4;;;;;;;17.4;100.0;100380;;;;
2022/05/23 02:29:00;;;;;;;0.2;0.2;;;;;;;17.4;100.0;100380;;;;
2022/05/23 02:30:00;;;;;;;0.2;0.2;;;;;;;17.3;100.0;100380;;;;
2022/05/23 02:31:00;;;;;;;0.2;0.2;;;;;;;17.3;100.0;100380;;;;
2022/05/23 02:32:00;;;;;;;0.2;0.2;;;;;;;17.3;100.0;100380;;;;
2022/05/23 02:33:00;;;;;;;0.2;0.2;;;;;;;17.3;100.0;100380;;;;
2022/05/23 02:34:00;;;;;;;0.2;0.2;;;;;;;17.4;100.0;100380;;;;
2022/05/23 02:35:00;;;;;;;0.2;0.2;;;;;;;17.4;100.0;100380;;;;
2022/05/23 02:36:00;;;;;;;0.2;0.2;;;;;;;17.3;100.0;100370;;;;
2022/05/23 02:37:00;;;;;;;0.2;0.2;;;;;;;17.3;100.0;100370;;;;
2022/05/23 02:38:00;;;;;;;0.2;0.2;;;;;;;17.3;100.0;100370;;;;
2022/05/23 02:39:00;;;;;;;0.2;0.2;;;;;;;17.3;100.0;100370;;;;
2022/05/23 02:40:00;;;;;;;0.2;0.2;;;;;;;17.4;100.0;100370;;;;
2022/05/23 02:41:00;;;;;;;0.2;0.2;;;;;;;17.4;100.0;100370;;;;
2022/05/23 02:42:01;;;;;;;0.2;0.2;;;;;;;17.4;100.0;100360;;;;
2022/05/23 02:43:00;;;;;;;0.2;0.2;;;;;;;17.4;100.0;100360;;;;
2022/05/23 02:44:00;;;;;;;0.2;0.2;;;;;;;17.3;100.0;100360;;;;
2022/05/23 02:45:00;;;;;;;0.2;0.2;;;;;;;17.3;100.0;100360;;;;
2022/05/23 02:46:00;;;;;;;0.2;0.2;;;;;;;17.2;100.0;100360;;;;
2022/05/23 02:47:00;;;;;;;0.2;0.2;;;;;;;17.2;100.0;100360;;;;
2022/05/23 02:48:00;;;;;;;0.2;0.2;;;;;;;17.1;100.0;100360;;;;
2022/05/23 02:49:00;;;;;;;0.5;0.5;;;;;;;17.1;100.0;100360;;;;
2022/05/23 02:50:00;;;;;;;0.5;0.5;;;;;;;17.2;100.0;100360;;;;
2022/05/23 02:51:00;;;;;;;0.5;0.5;;;;;;;17.2;100.0;100360;;;;
2022/05/23 02:52:00;;;;;;;0.5;0.5;;;;;;;17.3;100.0;100350;;;;
2022/05/23 02:53:00;;;;;;;0.5;0.5;;;;;;;17.3;100.0;100350;;;;
2022/05/23 02:54:00;;;;;;;0.5;0.5;;;;;;;17.3;100.0;100350;;;;
2022/05/23 02:55:00;;;;;;;0.5;0.5;;;;;;;17.3;100.0;100350;;;;
2022/05/23 02:56:00;;;;;;;0.5;0.5;;;;;;;17.1;100.0;100340;;;;
2022/05/23 02:57:00;;;;;;;0.5;0.5;;;;;;;17.1;100.0;100340;;;;
2022/05/23 02:58:00;;;;;;;0.5;0.5;;;;;;;16.9;100.0;100340;;;;
2022/05/23 02:59:00;;;;;;;0.5;0.5;;;;;;;16.9;100.0;100340;;;;
2022/05/23 03:00:00;;;;;;;0.5;0.5;;;;;;;16.8;100.0;100330;;;;
2022/05/23 03:01:00;;;;;;;0.5;0.5;;;;;;;16.8;100.0;100330;;;;
2022/05/23 03:03:01;;;;;;;0.5;0.5;;;;;;;17.0;100.0;100340;;;;
2022/05/23 03:04:00;;;;;;;0.5;0.5;;;;;;;16.9;100.0;100330;;;;
2022/05/23 03:05:00;;;;;;;0.5;0.5;;;;;;;16.9;100.0;100330;;;;
2022/05/23 03:06:00;;;;;;;0.5;0.5;;;;;;;16.9;100.0;100320;;;;
2022/05/23 03:07:00;;;;;;;0.5;0.5;;;;;;;16.9;100.0;100320;;;;
2022/05/23 03:08:00;;;;;;;0.5;0.5;;;;;;;16.9;100.0;100310;;;;
2022/05/23 03:09:00;;;;;;;0.2;0.2;;;;;;;16.9;100.0;100310;;;;
2022/05/23 03:10:00;;;;;;;0.2;0.2;;;;;;;16.9;100.0;100310;;;;
2022/05/23 03:11:01;;;;;;;0.2;0.2;;;;;;;16.9;100.0;100310;;;;
2022/05/23 03:12:00;;;;;;;0.2;0.2;;;;;;;17.0;100.0;100310;;;;
2022/05/23 03:13:00;;;;;;;0.2;0.2;;;;;;;17.0;100.0;100310;;;;
2022/05/23 03:14:00;;;;;;;0.2;0.2;;;;;;;16.9;100.0;100290;;;;
2022/05/23 03:15:00;;;;;;;0.2;0.2;;;;;;;16.9;100.0;100290;;;;
2022/05/23 03:16:00;;;;;;;0.2;0.2;;;;;;;16.8;100.0;100280;;;;
2022/05/23 03:17:01;;;;;;;0.2;0.2;;;;;;;16.8;100.0;100280;;;;
2022/05/23 03:18:00;;;;;;;0.2;0.2;;;;;;;16.8;100.0;100270;;;;
2022/05/23 03:19:00;;;;;;;0.2;0.2;;;;;;;16.8;100.0;100270;;;;
2022/05/23 03:20:00;;;;;;;0.2;0.2;;;;;;;16.6;100.0;100260;;;;
2022/05/23 03:21:03;;;;;;;0.2;0.2;;;;;;;16.6;100.0;100260;;;;
2022/05/23 03:27:00;;;;;;;0.2;0.2;;;;;;;16.8;100.0;100260;;;;
2022/05/23 03:28:01;;;;;;;0.2;0.2;;;;;;;16.8;100.0;100250;;;;
2022/05/23 03:29:00;;;;;;;0.4;0.4;;;;;;;16.8;100.0;100250;;;;
2022/05/23 03:30:00;;;;;;;0.4;0.4;;;;;;;16.9;100.0;100240;;;;
2022/05/23 03:31:00;;;;;;;0.4;0.4;;;;;;;16.9;100.0;100240;;;;
2022/05/23 03:32:00;;;;;;;0.4;0.4;;;;;;;16.8;100.0;100250;;;;
2022/05/23 03:33:00;;;;;;;0.4;0.4;;;;;;;16.8;100.0;100250;;;;
2022/05/23 03:34:00;;;;;;;0.4;0.4;;;;;;;16.7;100.0;100250;;;;
2022/05/23 03:35:00;;;;;;;0.4;0.4;;;;;;;16.7;100.0;100250;;;;
2022/05/23 03:36:00;;;;;;;0.4;0.4;;;;;;;16.9;100.0;100250;;;;
2022/05/23 03:37:00;;;;;;;0.4;0.4;;;;;;;16.9;100.0;100250;;;;
2022/05/23 03:38:01;;;;;;;0.4;0.4;;;;;;;17.0;100.0;100260;;;;
2022/05/23 03:39:00;;;;;;;0.4;0.4;;;;;;;17.0;100.0;100260;;;;
2022/05/23 03:40:01;;;;;;;0.4;0.4;;;;;;;17.0;100.0;100250;;;;
2022/05/23 03:41:09;;;;;;;0.4;0.4;;;;;;;17.0;100.0;100250;;;;
2022/05/23 03:42:00;;;;;;;0.4;0.4;;;;;;;17.0;100.0;100240;;;;
2022/05/23 03:43:00;;;;;;;0.4;0.4;;;;;;;17.0;100.0;100240;;;;
2022/05/23 03:44:00;;;;;;;0.4;0.4;;;;;;;16.8;100.0;100240;;;;
2022/05/23 03:45:00;;;;;;;0.4;0.4;;;;;;;16.8;100.0;100240;;;;
2022/05/23 03:46:04;;;;;;;0.4;0.4;;;;;;;16.8;100.0;100240;;;;
2022/05/23 03:47:00;;;;;;;0.4;0.4;;;;;;;16.8;100.0;100240;;;;
2022/05/23 03:48:00;;;;;;;0.4;0.4;;;;;;;16.9;100.0;100230;;;;
2022/05/23 03:49:01;;;;;;;0.7;0.7;;;;;;;16.9;100.0;100230;;;;
2022/05/23 03:50:00;;;;;;;0.7;0.7;;;;;;;17.0;100.0;100230;;;;
2022/05/23 03:51:00;;;;;;;0.7;0.7;;;;;;;17.0;100.0;100230;;;;
2022/05/23 03:52:00;;;;;;;0.7;0.7;;;;;;;16.9;100.0;100230;;;;
2022/05/23 03:53:00;;;;;;;0.7;0.7;;;;;;;16.9;100.0;100230;;;;
2022/05/23 03:54:00;;;;;;;0.7;0.7;;;;;;;16.9;100.0;100220;;;;
2022/05/23 03:55:00;;;;;;;0.7;0.7;;;;;;;16.9;100.0;100220;;;;
2022/05/23 03:56:00;;;;;;;0.7;0.7;;;;;;;16.9;100.0;100220;;;;
2022/05/23 03:57:00;;;;;;;0.7;0.7;;;;;;;16.9;100.0;100220;;;;
2022/05/23 03:58:00;;;;;;;0.7;0.7;;;;;;;16.7;100.0;100210;;;;
2022/05/23 03:59:00;;;;;;;0.7;0.7;;;;;;;16.7;100.0;100210;;;;
2022/05/23 04:00:00;;;;;;;0.7;0.7;;;;;;;16.8;100.0;100220;;;;
2022/05/23 04:01:04;;;;;;;0.7;0.7;;;;;;;16.8;100.0;100220;;;;
2022/05/23 04:02:00;;;;;;;0.7;0.7;;;;;;;16.9;100.0;100220;;;;
2022/05/23 04:03:01;;;;;;;0.7;0.7;;;;;;;16.9;100.0;100220;;;;
2022/05/23 04:04:00;;;;;;;0.7;0.7;;;;;;;16.9;100.0;100210;;;;
2022/05/23 04:05:00;;;;;;;0.7;0.7;;;;;;;16.9;100.0;100210;;;;
2022/05/23 04:06:00;;;;;;;0.7;0.7;;;;;;;16.9;100.0;100210;;;;
2022/05/23 04:07:00;;;;;;;0.7;0.7;;;;;;;16.9;100.0;100210;;;;
2022/05/23 04:08:00;;;;;;;0.7;0.7;;;;;;;16.9;100.0;100210;;;;
2022/05/23 04:09:00;;;;;;;0.5;0.5;;;;;;;16.9;100.0;100210;;;;
2022/05/23 04:10:00;;;;;;;0.5;0.5;;;;;;;16.9;100.0;100210;;;;
2022/05/23 04:11:00;;;;;;;0.5;0.5;;;;;;;16.9;100.0;100210;;;;
2022/05/23 04:12:00;;;;;;;0.5;0.5;;;;;;;16.9;100.0;100210;;;;
2022/05/23 04:13:02;;;;;;;0.5;0.5;;;;;;;16.9;100.0;100210;;;;
2022/05/23 04:14:00;;;;;;;0.5;0.5;;;;;;;17.0;100.0;100210;;;;
2022/05/23 04:15:00;;;;;;;0.5;0.5;;;;;;;17.0;100.0;100210;;;;
2022/05/23 04:16:00;;;;;;;0.5;0.5;;;;;;;16.9;100.0;100210;;;;
2022/05/23 04:17:00;;;;;;;0.5;0.5;;;;;;;16.9;100.0;100210;;;;
2022/05/23 04:18:00;;;;;;;0.5;0.5;;;;;;;17.0;100.0;100210;;;;
2022/05/23 04:19:04;;;;;;;0.5;0.5;;;;;;;17.0;100.0;100210;;;;
2022/05/23 04:20:00;;;;;;;0.5;0.5;;;;;;;17.1;100.0;100200;;;;
2022/05/23 04:21:01;;;;;;;0.5;0.5;;;;;;;17.1;100.0;100200;;;;
2022/05/23 04:22:00;;;;;;;0.5;0.5;;;;;;;17.1;100.0;100200;;;;
2022/05/23 04:23:00;;;;;;;0.5;0.5;;;;;;;17.1;100.0;100200;;;;
2022/05/23 04:24:00;;;;;;;0.5;0.5;;;;;;;17.0;100.0;100210;;;;
2022/05/23 04:25:00;;;;;;;0.5;0.5;;;;;;;17.0;100.0;100210;;;;
2022/05/23 04:26:01;;;;;;;0.5;0.5;;;;;;;17.1;100.0;100210;;;;
2022/05/23 04:27:00;;;;;;;0.5;0.5;;;;;;;17.1;100.0;100210;;;;
2022/05/23 04:28:00;;;;;;;0.5;0.5;;;;;;;17.1;100.0;100210;;;;
2022/05/23 04:29:00;;;;;;;0.4;0.4;;;;;;;17.1;100.0;100210;;;;
2022/05/23 04:30:00;;;;;;;0.4;0.4;;;;;;;17.1;100.0;100200;;;;
2022/05/23 04:31:00;;;;;;;0.4;0.4;;;;;;;17.1;100.0;100200;;;;
2022/05/23 04:32:00;;;;;;;0.4;0.4;;;;;;;17.1;100.0;100190;;;;
2022/05/23 04:36:00;;;;;;;0.4;0.4;;;;;;;16.9;100.0;100180;;;;
2022/05/23 04:37:00;;;;;;;0.4;0.4;;;;;;;16.9;100.0;100180;;;;
2022/05/23 04:38:00;;;;;;;0.4;0.4;;;;;;;17.0;100.0;100180;;;;
2022/05/23 04:39:00;;;;;;;0.4;0.4;;;;;;;17.0;100.0;100180;;;;
2022/05/23 04:40:00;;;;;;;0.4;0.4;;;;;;;17.0;100.0;100180;;;;
2022/05/23 04:41:00;;;;;;;0.4;0.4;;;;;;;17.0;100.0;100180;;;;
2022/05/23 04:42:00;;;;;;;0.4;0.4;;;;;;;16.9;100.0;100180;;;;
2022/05/23 04:43:00;;;;;;;0.4;0.4;;;;;;;16.9;100.0;100180;;;;
2022/05/23 04:44:00;;;;;;;0.4;0.4;;;;;;;17.1;100.0;100180;;;;
2022/05/23 04:45:00;;;;;;;0.4;0.4;;;;;;;17.1;100.0;100180;;;;
2022/05/23 04:46:00;;;;;;;0.4;0.4;;;;;;;17.2;100.0;100180;;;;
2022/05/23 04:50:00;;;;;;;1.9;1.2;;;;;;;17.2;100.0;100180;;;;
2022/05/23 04:51:00;;;;;;;1.9;1.2;;;;;;;17.2;100.0;100180;;;;
2022/05/23 04:52:00;;;;;;;1.9;1.2;;;;;;;17.2;100.0;100180;;;;
2022/05/23 04:53:01;;;;;;;1.9;1.2;;;;;;;17.2;100.0;100180;;;;
2022/05/23 04:54:00;;;;;;;1.9;1.2;;;;;;;17.4;100.0;100170;;;;
2022/05/23 04:55:04;;;;;;;1.9;1.2;;;;;;;17.4;100.0;100170;;;;
2022/05/23 04:56:00;;;;;;;1.9;1.2;;;;;;;17.3;100.0;100170;;;;
2022/05/23 04:57:00;;;;;;;1.9;1.2;;;;;;;17.3;100.0;100170;;;;
2022/05/23 04:58:00;;;;;;;1.9;1.2;;;;;;;17.5;100.0;100180;;;;
2022/05/23 04:59:00;;;;;;;1.9;1.2;;;;;;;17.5;100.0;100180;;;;
2022/05/23 05:00:00;;;;;;;1.9;1.2;;;;;;;17.4;100.0;100170;;;;
2022/05/23 05:01:01;;;;;;;1.9;1.2;;;;;;;17.4;100.0;100170;;;;
2022/05/23 05:02:01;;;;;;;1.9;1.2;;;;;;;17.4;100.0;100160;;;;
2022/05/23 05:03:00;;;;;;;1.9;1.2;;;;;;;17.4;100.0;100160;;;;
2022/05/23 05:04:00;;;;;;;1.9;1.2;;;;;;;17.3;100.0;100160;;;;
2022/05/23 05:05:00;;;;;;;1.9;1.2;;;;;;;17.3;100.0;100160;;;;
2022/05/23 05:06:00;;;;;;;1.9;1.2;;;;;;;17.5;100.0;100160;;;;
2022/05/23 05:07:00;;;;;;;1.9;1.2;;;;;;;17.5;100.0;100160;;;;
2022/05/23 05:08:00;;;;;;;1.9;1.2;;;;;;;17.6;100.0;100150;;;;
2022/05/23 05:09:00;;;;;;;1.0;1.0;;;;;;;17.6;100.0;100150;;;;
2022/05/23 05:10:00;;;;;;;1.0;1.0;;;;;;;17.6;100.0;100150;;;;
2022/05/23 05:11:02;;;;;;;1.0;1.0;;;;;;;17.6;100.0;100150;;;;
2022/05/23 05:12:00;;;;;;;1.0;1.0;;;;;;;17.6;100.0;100150;;;;
2022/05/23 05:13:00;;;;;;;1.0;1.0;;;;;;;17.6;100.0;100150;;;;
2022/05/23 05:14:00;;;;;;;1.0;1.0;;;;;;;17.6;100.0;100150;;;;
2022/05/23 05:15:00;;;;;;;1.0;1.0;;;;;;;17.6;100.0;100150;;;;
2022/05/23 05:16:00;;;;;;;1.0;1.0;;;;;;;17.6;100.0;100150;;;;
2022/05/23 05:17:00;;;;;;;1.0;1.0;;;;;;;17.6;100.0;100150;;;;
2022/05/23 05:18:00;;;;;;;1.0;1.0;;;;;;;17.6;100.0;100150;;;;
2022/05/23 05:19:00;;;;;;;1.0;1.0;;;;;;;17.6;100.0;100150;;;;
2022/05/23 05:20:00;;;;;;;1.0;1.0;;;;;;;17.4;100.0;100150;;;;
2022/05/23 05:21:10;;;;;;;1.0;1.0;;;;;;;17.4;100.0;100150;;;;
2022/05/23 05:22:00;;;;;;;1.0;1.0;;;;;;;17.5;100.0;100150;;;;
2022/05/23 05:23:00;;;;;;;1.0;1.0;;;;;;;17.5;100.0;100150;;;;
2022/05/23 05:24:00;;;;;;;1.0;1.0;;;;;;;17.7;100.0;100140;;;;
2022/05/23 05:25:00;;;;;;;1.0;1.0;;;;;;;17.7;100.0;100140;;;;
2022/05/23 05:26:02;;;;;;;1.0;1.0;;;;;;;17.4;100.0;100140;;;;
2022/05/23 05:27:00;;;;;;;1.0;1.0;;;;;;;17.4;100.0;100140;;;;
2022/05/23 05:28:00;;;;;;;1.0;1.0;;;;;;;17.5;100.0;100140;;;;
2022/05/23 05:29:00;;;;;;;0.7;0.7;;;;;;;17.5;100.0;100140;;;;
2022/05/23 05:30:00;;;;;;;0.7;0.7;;;;;;;17.4;100.0;100130;;;;
2022/05/23 05:31:10;;;;;;;0.7;0.7;;;;;;;17.4;100.0;100130;;;;
2022/05/23 05:32:03;;;;;;;0.7;0.7;;;;;;;17.5;100.0;100110;;;;
2022/05/23 05:33:05;;;;;;;0.7;0.7;;;;;;;17.5;100.0;100110;;;;
2022/05/23 05:34:04;;;;;;;0.7;0.7;;;;;;;17.5;100.0;100110;;;;
2022/05/23 05:35:02;;;;;;;0.7;0.7;;;;;;;17.5;100.0;100110;;;;
2022/05/23 05:36:04;;;;;;;0.7;0.7;;;;;;;17.6;100.0;100110;;;;
2022/05/23 05:37:04;;;;;;;0.7;0.7;;;;;;;17.6;100.0;100110;;;;
2022/05/23 05:38:10;;;;;;;0.7;0.7;;;;;;;17.7;100.0;100110;;;;
2022/05/23 05:39:01;;;;;;;0.7;0.7;;;;;;;17.7;100.0;100110;;;;
2022/05/23 05:40:02;;;;;;;0.7;0.7;;;;;;;17.8;100.0;100110;;;;
2022/05/23 05:41:03;;;;;;;0.7;0.7;;;;;;;17.8;100.0;100110;;;;
2022/05/23 05:42:03;;;;;;;0.7;0.7;;;;;;;17.8;100.0;100110;;;;
2022/05/23 05:43:02;;;;;;;0.7;0.7;;;;;;;17.8;100.0;100110;;;;
2022/05/23 05:44:02;;;;;;;0.7;0.7;;;;;;;17.9;100.0;100110;;;;
2022/05/23 05:45:04;;;;;;;0.7;0.7;;;;;;;17.9;100.0;100110;;;;
2022/05/23 05:46:10;;;;;;;0.7;0.7;;;;;;;17.8;100.0;100100;;;;
2022/05/23 05:47:15;;;;;;;0.7;0.7;;;;;;;17.8;100.0;100100;;;;
2022/05/23 05:48:10;;;;;;;0.7;0.7;;;;;;;17.8;100.0;100100;;;;
2022/05/23 05:49:01;;;;;;;0.4;0.4;;;;;;;17.8;100.0;100100;;;;
2022/05/23 05:50:03;;;;;;;0.4;0.4;;;;;;;17.9;100.0;100100;;;;
2022/05/23 05:51:00;;;;;;;0.4;0.4;;;;;;;17.9;100.0;100100;;;;
2022/05/23 05:52:01;;;;;;;0.4;0.4;;;;;;;17.9;100.0;100100;;;;
2022/05/23 05:53:02;;;;;;;0.4;0.4;;;;;;;17.9;100.0;100100;;;;
2022/05/23 05:54:00;;;;;;;0.4;0.4;;;;;;;18.1;100.0;100090;;;;
2022/05/23 05:55:01;;;;;;;0.4;0.4;;;;;;;18.1;100.0;100090;;;;
2022/05/23 05:56:01;;;;;;;0.4;0.4;;;;;;;18.2;100.0;100090;;;;
2022/05/23 05:57:01;;;;;;;0.4;0.4;;;;;;;18.2;100.0;100090;;;;
2022/05/23 05:58:00;;;;;;;0.4;0.4;;;;;;;18.3;100.0;100090;;;;
2022/05/23 05:59:00;;;;;;;0.4;0.4;;;;;;;18.3;100.0;100090;;;;
2022/05/23 06:00:00;;;;;;;0.4;0.4;;;;;;;18.4;100.0;100090;;;;
2022/05/23 06:01:00;;;;;;;0.4;0.4;;;;;;;18.4;100.0;100090;;;;
2022/05/23 06:02:00;;;;;;;0.4;0.4;;;;;;;18.5;100.0;100090;;;;
2022/05/23 06:03:00;;;;;;;0.4;0.4;;;;;;;18.5;100.0;100090;;;;
2022/05/23 06:04:01;;;;;;;0.4;0.4;;;;;;;18.1;100.0;100090;;;;
2022/05/23 06:05:00;;;;;;;0.4;0.4;;;;;;;18.1;100.0;100090;;;;
2022/05/23 06:12:00;;;;;;;1.1;0.6;;;;;;;18.3;100.0;100070;;;;
2022/05/23 06:13:00;;;;;;;1.1;0.6;;;;;;;18.3;100.0;100070;;;;
2022/05/23 06:14:03;;;;;;;1.1;0.6;;;;;;;18.5;100.0;100080;;;;
2022/05/23 06:15:00;;;;;;;1.1;0.6;;;;;;;18.5;100.0;100080;;;;
2022/05/23 06:16:00;;;;;;;1.1;0.6;;;;;;;18.3;100.0;100070;;;;
2022/05/23 06:17:00;;;;;;;1.1;0.6;;;;;;;18.3;100.0;100070;;;;
2022/05/23 06:18:00;;;;;;;1.1;0.6;;;;;;;18.3;100.0;100060;;;;
2022/05/23 06:19:00;;;;;;;1.1;0.6;;;;;;;18.3;100.0;100060;;;;
2022/05/23 06:20:00;;;;;;;1.1;0.6;;;;;;;18.3;100.0;100070;;;;
2022/05/23 06:21:00;;;;;;;1.1;0.6;;;;;;;18.3;100.0;100070;;;;
2022/05/23 06:22:00;;;;;;;1.1;0.6;;;;;;;18.3;100.0;100070;;;;
2022/05/23 06:23:01;;;;;;;1.1;0.6;;;;;;;18.3;100.0;100070;;;;
2022/05/23 06:24:06;;;;;;;1.1;0.6;;;;;;;18.1;100.0;100070;;;;
2022/05/23 06:25:02;;;;;;;1.1;0.6;;;;;;;18.1;100.0;100070;;;;
2022/05/23 06:26:00;;;;;;;1.1;0.6;;;;;;;18.4;100.0;100070;;;;
2022/05/23 06:27:01;;;;;;;1.1;0.6;;;;;;;18.4;100.0;100070;;;;
2022/05/23 06:28:00;;;;;;;1.1;0.6;;;;;;;18.4;100.0;100060;;;;
2022/05/23 06:29:00;;;;;;;0.4;0.4;;;;;;;18.4;100.0;100060;;;;
2022/05/23 06:30:00;;;;;;;0.4;0.4;;;;;;;18.5;100.0;100060;;;;
2022/05/23 06:31:00;;;;;;;0.4;0.4;;;;;;;18.5;100.0;100060;;;;
2022/05/23 06:32:01;;;;;;;0.4;0.4;;;;;;;18.6;100.0;100050;;;;
2022/05/23 06:33:00;;;;;;;0.4;0.4;;;;;;;18.6;100.0;100050;;;;
2022/05/23 06:34:00;;;;;;;0.4;0.4;;;;;;;18.6;100.0;100050;;;;
2022/05/23 06:35:07;;;;;;;0.4;0.4;;;;;;;18.6;100.0;100050;;;;
2022/05/23 06:36:00;;;;;;;0.4;0.4;;;;;;;18.8;100.0;100050;;;;
2022/05/23 06:37:00;;;;;;;0.4;0.4;;;;;;;18.8;100.0;100050;;;;
2022/05/23 06:38:00;;;;;;;0.4;0.4;;;;;;;18.6;100.0;100040;;;;
2022/05/23 06:39:00;;;;;;;0.4;0.4;;;;;;;18.6;100.0;100040;;;;
2022/05/23 06:40:00;;;;;;;0.4;0.4;;;;;;;18.7;100.0;100040;;;;
2022/05/23 06:41:00;;;;;;;0.4;0.4;;;;;;;18.7;100.0;100040;;;;
2022/05/23 06:42:00;;;;;;;0.4;0.4;;;;;;;19.0;100.0;100050;;;;
2022/05/23 06:43:01;;;;;;;0.4;0.4;;;;;;;19.0;100.0;100050;;;;
2022/05/23 06:44:00;;;;;;;0.4;0.4;;;;;;;19.3;100.0;100040;;;;
2022/05/23 06:45:00;;;;;;;0.4;0.4;;;;;;;19.3;100.0;100040;;;;
2022/05/23 06:46:02;;;;;;;0.4;0.4;;;;;;;19.2;100.0;100040;;;;
2022/05/23 06:47:00;;;;;;;0.4;0.4;;;;;;;19.2;100.0;100040;;;;
2022/05/23 06:48:00;;;;;;;0.4;0.4;;;;;;;19.2;100.0;100030;;;;
2022/05/23 06:49:00;;;;;;;0.7;0.7;;;;;;;19.2;100.0;100030;;;;
2022/05/23 06:50:00;;;;;;;0.7;0.7;;;;;;;19.0;100.0;100030;;;;